createdAt,value
2017-03-23T00:00:19.292Z,49.18
2017-03-23T00:00:59.943Z,49.18
2017-03-23T00:01:40.613Z,49.46
2017-03-23T00:02:21.293Z,49.37
2017-03-23T00:03:01.965Z,49.37
2017-03-23T00:03:42.620Z,49.65
2017-03-23T00:04:23.389Z,49.37
2017-03-23T00:05:04.189Z,49.75
2017-03-23T00:05:44.922Z,49.94
2017-03-23T00:06:25.565Z,49.94
2017-03-23T00:08:18.232Z,49.85
2017-03-23T00:08:58.869Z,50.13
2017-03-23T00:09:39.515Z,50.1
2017-03-23T00:10:20.176Z,50.13
2017-03-23T00:11:00.888Z,50.04
2017-03-23T00:11:41.455Z,50.23
2017-03-23T00:12:22.166Z,49.94
2017-03-23T00:13:02.855Z,50.04
2017-03-23T00:13:43.468Z,50.13
2017-03-23T00:14:24.159Z,50.29
2017-03-23T00:15:04.843Z,50.79
2017-03-23T00:15:45.611Z,50.79
2017-03-23T00:16:26.235Z,50.89
2017-03-23T00:17:06.929Z,50.89
2017-03-23T00:17:47.657Z,50.79
2017-03-23T00:18:28.393Z,51.15
2017-03-23T00:19:09.012Z,51.08
2017-03-23T00:19:49.796Z,51.08
2017-03-23T00:20:30.484Z,51.08
2017-03-23T00:21:11.165Z,51.08
2017-03-23T00:21:51.809Z,51.08
2017-03-23T00:22:32.487Z,51.65
2017-03-23T00:23:13.076Z,51.46
2017-03-23T00:23:53.839Z,51.65
2017-03-23T00:24:34.505Z,51.93
2017-03-23T00:25:15.112Z,51.93
2017-03-23T00:25:55.832Z,52.03
2017-03-23T00:26:36.442Z,51.75
2017-03-23T00:27:17.160Z,51.82
2017-03-23T00:27:57.903Z,51.84
2017-03-23T00:28:38.528Z,52.1
2017-03-23T00:29:19.202Z,51.75
2017-03-23T00:29:59.889Z,52.03
2017-03-23T00:30:40.560Z,52.01
2017-03-23T00:31:21.242Z,52.1
2017-03-23T00:32:01.903Z,52.32
2017-03-23T00:32:42.541Z,52.41
2017-03-23T00:33:23.169Z,52.76
2017-03-23T00:34:03.780Z,52.61
2017-03-23T00:34:44.534Z,52.39
2017-03-23T00:35:25.429Z,52.39
2017-03-23T00:36:06.069Z,52.76
2017-03-23T00:36:46.765Z,52.98
2017-03-23T00:37:27.540Z,53.24
2017-03-23T00:38:08.281Z,53.15
2017-03-23T00:38:48.967Z,52.86
2017-03-23T00:39:29.705Z,52.98
2017-03-23T00:40:10.368Z,52.96
2017-03-23T00:40:51.029Z,53.08
2017-03-23T00:41:31.663Z,52.96
2017-03-23T00:42:12.347Z,53.36
2017-03-23T00:42:52.988Z,53.27
2017-03-23T00:43:33.703Z,53.24
2017-03-23T00:44:14.456Z,53.27
2017-03-23T00:44:55.243Z,53.46
2017-03-23T00:45:35.852Z,53.27
2017-03-23T00:46:16.514Z,53.17
2017-03-23T00:46:57.139Z,52.86
2017-03-23T00:47:37.824Z,52.7
2017-03-23T00:48:18.515Z,52.98
2017-03-23T00:48:59.236Z,53.36
2017-03-23T00:49:39.912Z,53.43
2017-03-23T00:50:20.581Z,53.36
2017-03-23T00:51:01.203Z,53.17
2017-03-23T00:51:41.857Z,53.65
2017-03-23T00:52:22.547Z,53.75
2017-03-23T00:53:03.265Z,53.75
2017-03-23T00:53:43.939Z,53.81
2017-03-23T00:54:24.550Z,53.84
2017-03-23T00:55:05.216Z,53.84
2017-03-23T00:55:45.884Z,53.81
2017-03-23T00:56:26.639Z,54.19
2017-03-23T00:57:07.189Z,54.48
2017-03-23T00:57:47.823Z,54.29
2017-03-23T00:58:28.562Z,54.1
2017-03-23T00:59:09.170Z,54
2017-03-23T00:59:49.828Z,54.38
2017-03-23T01:00:30.496Z,54.29
2017-03-23T01:01:11.143Z,54.38
2017-03-23T01:01:51.819Z,54.19
2017-03-23T01:02:32.507Z,54.19
2017-03-23T01:03:13.273Z,54.1
2017-03-23T01:03:53.999Z,54.77
2017-03-23T01:04:34.728Z,54.86
2017-03-23T01:05:15.381Z,54.77
2017-03-23T01:05:56.043Z,54.67
2017-03-23T01:06:36.723Z,55.43
2017-03-23T01:07:17.383Z,55.52
2017-03-23T01:07:58.027Z,55.33
2017-03-23T01:08:38.667Z,55.43
2017-03-23T01:09:19.371Z,55.15
2017-03-23T01:09:59.954Z,55.24
2017-03-23T01:10:40.565Z,55.15
2017-03-23T01:11:21.291Z,55.33
2017-03-23T01:12:02.017Z,55.43
2017-03-23T01:12:42.696Z,55.24
2017-03-23T01:13:23.383Z,55.43
2017-03-23T01:14:04.057Z,56
2017-03-23T01:14:44.788Z,55.9
2017-03-23T01:15:25.472Z,56
2017-03-23T01:16:06.095Z,56.19
2017-03-23T01:16:46.763Z,56.57
2017-03-23T01:17:27.459Z,56.67
2017-03-23T01:18:08.043Z,56.85
2017-03-23T01:18:48.799Z,56.76
2017-03-23T01:19:29.498Z,56.57
2017-03-23T01:20:10.177Z,56.67
2017-03-23T01:20:50.850Z,56.85
2017-03-23T01:21:31.533Z,57.24
2017-03-23T01:22:12.211Z,57.14
2017-03-23T01:22:52.957Z,56.85
2017-03-23T01:23:33.589Z,57.24
2017-03-23T01:24:14.316Z,57.33
2017-03-23T01:24:55.026Z,57.43
2017-03-23T01:25:35.706Z,57.52
2017-03-23T01:26:16.331Z,58
2017-03-23T01:26:57.038Z,58
2017-03-23T01:27:37.779Z,57.81
2017-03-23T01:28:18.368Z,57.71
2017-03-23T01:28:59.041Z,58
2017-03-23T01:29:39.687Z,57.9
2017-03-23T01:30:20.363Z,58.18
2017-03-23T01:31:01.050Z,58
2017-03-23T01:31:41.673Z,58
2017-03-23T01:32:22.313Z,58.09
2017-03-23T01:33:02.906Z,58
2017-03-23T01:33:43.570Z,58.09
2017-03-23T01:34:24.199Z,58.09
2017-03-23T01:35:04.908Z,57.9
2017-03-23T01:35:45.531Z,58
2017-03-23T01:36:26.128Z,57.81
2017-03-23T01:37:06.804Z,57.81
2017-03-23T01:37:47.465Z,58.18
2017-03-23T01:38:28.100Z,58
2017-03-23T01:39:08.751Z,58.47
2017-03-23T01:39:49.433Z,58.57
2017-03-23T01:40:30.028Z,58.57
2017-03-23T01:41:10.738Z,58.18
2017-03-23T01:41:51.353Z,58.18
2017-03-23T01:42:32.032Z,58.37
2017-03-23T01:43:12.703Z,58.66
2017-03-23T01:43:53.364Z,58.85
2017-03-23T01:44:34.010Z,58.76
2017-03-23T01:45:14.670Z,58.76
2017-03-23T01:45:55.309Z,58.76
2017-03-23T01:46:36.005Z,58.76
2017-03-23T01:47:16.632Z,58.76
2017-03-23T01:47:57.310Z,59.05
2017-03-23T01:48:37.956Z,59.14
2017-03-23T01:49:18.679Z,59.14
2017-03-23T01:49:59.328Z,59.61
2017-03-23T01:50:39.980Z,59.23
2017-03-23T01:51:20.803Z,59.23
2017-03-23T01:52:01.486Z,59.23
2017-03-23T01:52:42.160Z,59.52
2017-03-23T01:53:22.848Z,59.52
2017-03-23T01:54:03.522Z,59.23
2017-03-23T01:54:44.248Z,59.33
2017-03-23T01:55:24.880Z,59.42
2017-03-23T01:56:12.396Z,59.33
2017-03-23T01:56:53.047Z,59.33
2017-03-23T01:57:33.738Z,59.33
2017-03-23T01:58:14.347Z,59.33
2017-03-23T01:58:55.038Z,59.33
2017-03-23T01:59:35.709Z,59.14
2017-03-23T02:00:16.388Z,59.33
2017-03-23T02:00:57.126Z,59.14
2017-03-23T02:01:37.745Z,59.14
2017-03-23T02:02:18.436Z,59.61
2017-03-23T02:02:59.165Z,59.8
2017-03-23T02:03:39.880Z,59.61
2017-03-23T02:04:20.533Z,59.9
2017-03-23T02:05:01.199Z,59.8
2017-03-23T02:05:41.834Z,59.9
2017-03-23T02:06:22.502Z,59.71
2017-03-23T02:07:03.140Z,59.8
2017-03-23T02:07:43.811Z,59.99
2017-03-23T02:08:24.534Z,60.09
2017-03-23T02:09:05.183Z,60.38
2017-03-23T02:09:45.817Z,60.09
2017-03-23T02:10:26.434Z,59.99
2017-03-23T02:11:07.088Z,59.8
2017-03-23T02:11:47.725Z,59.9
2017-03-23T02:12:28.460Z,59.99
2017-03-23T02:13:09.204Z,60.38
2017-03-23T02:13:49.800Z,60.28
2017-03-23T02:14:30.427Z,60.09
2017-03-23T02:15:11.124Z,60.57
2017-03-23T02:15:51.841Z,60.57
2017-03-23T02:16:32.400Z,61.04
2017-03-23T02:17:13.110Z,60.75
2017-03-23T02:17:53.833Z,61.04
2017-03-23T02:18:34.488Z,60.75
2017-03-23T02:19:15.108Z,60.75
2017-03-23T02:19:55.767Z,60.85
2017-03-23T02:20:36.417Z,60.66
2017-03-23T02:21:17.062Z,60.85
2017-03-23T02:21:57.681Z,60.66
2017-03-23T02:22:38.370Z,60.75
2017-03-23T02:23:19.042Z,60.66
2017-03-23T02:23:59.681Z,60.66
2017-03-23T02:24:40.318Z,60.47
2017-03-23T02:25:20.957Z,60.57
2017-03-23T02:26:01.629Z,60.57
2017-03-23T02:26:42.266Z,60.94
2017-03-23T02:27:22.945Z,61.32
2017-03-23T02:28:03.601Z,60.75
2017-03-23T02:28:44.252Z,61.23
2017-03-23T02:29:24.972Z,61.13
2017-03-23T02:30:05.591Z,61.42
2017-03-23T02:30:46.250Z,61.23
2017-03-23T02:31:26.930Z,61.23
2017-03-23T02:32:07.616Z,61.23
2017-03-23T02:32:48.294Z,61.42
2017-03-23T02:33:28.986Z,61.32
2017-03-23T02:34:09.639Z,61.61
2017-03-23T02:34:50.296Z,61.13
2017-03-23T02:35:30.916Z,61.42
2017-03-23T02:36:11.693Z,61.42
2017-03-23T02:36:52.331Z,61.61
2017-03-23T02:37:32.985Z,61.71
2017-03-23T02:38:13.635Z,62.08
2017-03-23T02:38:54.317Z,62.08
2017-03-23T02:39:34.952Z,62.08
2017-03-23T02:40:15.595Z,61.9
2017-03-23T02:40:56.232Z,61.8
2017-03-23T02:41:36.951Z,61.9
2017-03-23T02:42:17.621Z,61.9
2017-03-23T02:42:58.287Z,61.9
2017-03-23T02:43:38.916Z,62.18
2017-03-23T02:44:19.621Z,62.27
2017-03-23T02:45:00.238Z,61.9
2017-03-23T02:45:40.882Z,61.8
2017-03-23T02:46:21.532Z,61.9
2017-03-23T02:47:02.142Z,61.61
2017-03-23T02:47:42.823Z,62.46
2017-03-23T02:48:23.474Z,61.99
2017-03-23T02:49:04.236Z,62.18
2017-03-23T02:49:44.919Z,61.99
2017-03-23T02:50:25.582Z,61.99
2017-03-23T02:51:06.189Z,62.27
2017-03-23T02:51:46.878Z,61.99
2017-03-23T02:52:27.511Z,62.18
2017-03-23T02:53:08.149Z,62.37
2017-03-23T02:53:48.826Z,62.37
2017-03-23T02:54:29.498Z,62.08
2017-03-23T02:55:10.139Z,62.08
2017-03-23T02:55:50.769Z,61.99
2017-03-23T02:56:31.453Z,62.56
2017-03-23T02:57:12.068Z,62.08
2017-03-23T02:57:52.846Z,62.18
2017-03-23T02:58:33.507Z,62.27
2017-03-23T02:59:14.299Z,62.08
2017-03-23T02:59:54.934Z,62.27
2017-03-23T03:00:35.650Z,62.65
2017-03-23T03:01:16.291Z,62.65
2017-03-23T03:01:56.982Z,62.65
2017-03-23T03:02:37.597Z,62.46
2017-03-23T03:03:18.250Z,62.37
2017-03-23T03:03:58.982Z,62.18
2017-03-23T03:04:39.605Z,63.13
2017-03-23T03:05:20.191Z,63.13
2017-03-23T03:06:00.871Z,62.94
2017-03-23T03:06:41.520Z,62.75
2017-03-23T03:07:22.194Z,62.65
2017-03-23T03:08:02.859Z,63.04
2017-03-23T03:08:43.557Z,62.18
2017-03-23T03:09:24.166Z,62.27
2017-03-23T03:10:04.769Z,62.46
2017-03-23T03:10:45.446Z,63.04
2017-03-23T03:11:26.125Z,62.75
2017-03-23T03:12:06.848Z,62.85
2017-03-23T03:12:47.493Z,62.85
2017-03-23T03:13:28.226Z,62.85
2017-03-23T03:14:08.980Z,62.75
2017-03-23T03:14:49.626Z,62.27
2017-03-23T03:15:30.299Z,62.85
2017-03-23T03:16:11.046Z,62.65
2017-03-23T03:16:51.706Z,62.85
2017-03-23T03:17:32.334Z,62.94
2017-03-23T03:18:13.016Z,62.94
2017-03-23T03:18:53.713Z,62.94
2017-03-23T03:19:34.420Z,63.04
2017-03-23T03:20:15.082Z,62.85
2017-03-23T03:20:55.735Z,63.51
2017-03-23T03:21:36.505Z,62.75
2017-03-23T03:22:17.181Z,63.32
2017-03-23T03:22:57.849Z,63.32
2017-03-23T03:23:38.450Z,63.51
2017-03-23T03:24:19.229Z,63.79
2017-03-23T03:24:59.913Z,63.7
2017-03-23T03:25:40.552Z,63.42
2017-03-23T03:26:21.203Z,63.6
2017-03-23T03:27:01.941Z,63.51
2017-03-23T03:27:42.531Z,63.42
2017-03-23T03:28:23.208Z,63.42
2017-03-23T03:29:03.947Z,63.42
2017-03-23T03:29:44.566Z,63.7
2017-03-23T03:30:25.250Z,63.42
2017-03-23T03:31:05.905Z,63.51
2017-03-23T03:31:46.534Z,63.32
2017-03-23T03:32:27.209Z,63.7
2017-03-23T03:33:07.879Z,63.79
2017-03-23T03:33:48.552Z,63.7
2017-03-23T03:34:29.334Z,63.89
2017-03-23T03:35:10.054Z,63.51
2017-03-23T03:35:50.693Z,63.79
2017-03-23T03:36:31.367Z,63.89
2017-03-23T03:37:12.086Z,63.6
2017-03-23T03:37:52.707Z,63.7
2017-03-23T03:38:33.312Z,64.08
2017-03-23T03:39:14.010Z,63.89
2017-03-23T03:39:54.608Z,63.79
2017-03-23T03:40:35.202Z,64.08
2017-03-23T03:41:15.900Z,64.08
2017-03-23T03:41:56.535Z,63.6
2017-03-23T03:42:37.216Z,63.89
2017-03-23T03:43:17.836Z,64.08
2017-03-23T03:43:58.519Z,64.08
2017-03-23T03:44:39.217Z,64.27
2017-03-23T03:45:19.776Z,64.37
2017-03-23T03:46:00.431Z,64.56
2017-03-23T03:46:41.106Z,64.37
2017-03-23T03:47:21.739Z,63.99
2017-03-23T03:48:02.354Z,63.89
2017-03-23T03:48:42.967Z,64.37
2017-03-23T03:49:23.647Z,64.37
2017-03-23T03:50:04.329Z,64.37
2017-03-23T03:50:45.045Z,64.27
2017-03-23T03:51:25.679Z,64.46
2017-03-23T03:52:06.424Z,64.46
2017-03-23T03:52:47.041Z,64.27
2017-03-23T03:53:27.702Z,64.27
2017-03-23T03:54:08.362Z,64.37
2017-03-23T03:54:48.996Z,64.56
2017-03-23T03:55:29.675Z,64.37
2017-03-23T03:56:10.533Z,64.37
2017-03-23T03:56:51.207Z,64.46
2017-03-23T03:57:31.848Z,64.62
2017-03-23T03:58:12.476Z,64.37
2017-03-23T03:58:53.162Z,64.46
2017-03-23T03:59:33.894Z,63.99
2017-03-23T04:00:14.502Z,64.37
2017-03-23T04:00:55.152Z,64.37
2017-03-23T04:01:35.787Z,64.65
2017-03-23T04:02:16.472Z,65.13
2017-03-23T04:02:57.179Z,64.56
2017-03-23T04:03:37.872Z,64.65
2017-03-23T04:04:18.510Z,64.08
2017-03-23T04:04:59.281Z,64.56
2017-03-23T04:05:39.928Z,65.03
2017-03-23T04:06:20.672Z,64.75
2017-03-23T04:07:01.357Z,65.13
2017-03-23T04:07:42.009Z,64.84
2017-03-23T04:08:22.676Z,65
2017-03-23T04:09:03.389Z,65.03
2017-03-23T04:09:44.037Z,64.84
2017-03-23T04:10:24.663Z,64.81
2017-03-23T04:11:05.309Z,65.03
2017-03-23T04:11:45.999Z,64.75
2017-03-23T04:12:26.714Z,64.94
2017-03-23T04:13:07.344Z,64.81
2017-03-23T04:13:48.035Z,65.09
2017-03-23T04:14:28.705Z,65.32
2017-03-23T04:15:09.435Z,65.03
2017-03-23T04:15:50.059Z,65.19
2017-03-23T04:16:30.729Z,65.41
2017-03-23T04:17:11.423Z,65.38
2017-03-23T04:17:52.164Z,65.32
2017-03-23T04:18:32.801Z,65.38
2017-03-23T04:19:13.487Z,65.41
2017-03-23T04:19:54.219Z,65.38
2017-03-23T04:20:34.870Z,65.32
2017-03-23T04:21:15.505Z,65.32
2017-03-23T04:21:56.178Z,65.13
2017-03-23T04:22:36.952Z,65.38
2017-03-23T04:23:17.790Z,65.41
2017-03-23T04:23:58.426Z,65.03
2017-03-23T04:24:39.078Z,65.32
2017-03-23T04:25:19.741Z,65.13
2017-03-23T04:26:00.494Z,65.22
2017-03-23T04:26:41.122Z,65.51
2017-03-23T04:27:21.873Z,65.41
2017-03-23T04:28:02.452Z,65.47
2017-03-23T04:28:43.064Z,65.47
2017-03-23T04:29:23.755Z,65.67
2017-03-23T04:30:04.426Z,65.6
2017-03-23T04:30:45.140Z,65.57
2017-03-23T04:31:25.810Z,65.57
2017-03-23T04:32:06.463Z,65.38
2017-03-23T04:32:47.140Z,65.51
2017-03-23T04:33:27.830Z,65.41
2017-03-23T04:34:08.425Z,65.38
2017-03-23T04:34:49.133Z,65.28
2017-03-23T04:35:29.860Z,65.57
2017-03-23T04:36:10.538Z,65.47
2017-03-23T04:36:51.217Z,65.28
2017-03-23T04:37:31.854Z,65.76
2017-03-23T04:38:12.490Z,65.38
2017-03-23T04:38:53.165Z,65.47
2017-03-23T04:39:33.792Z,65.76
2017-03-23T04:40:14.534Z,65.38
2017-03-23T04:40:55.202Z,65.67
2017-03-23T04:41:36.065Z,65.47
2017-03-23T04:42:16.745Z,65.67
2017-03-23T04:42:57.505Z,65.38
2017-03-23T04:43:38.157Z,65.47
2017-03-23T04:44:18.891Z,65.47
2017-03-23T04:44:59.555Z,65.47
2017-03-23T04:45:40.236Z,65.19
2017-03-23T04:46:20.918Z,65.13
2017-03-23T04:47:01.626Z,64.9
2017-03-23T04:47:42.252Z,65
2017-03-23T04:48:22.864Z,65.28
2017-03-23T04:49:03.547Z,65.03
2017-03-23T04:49:44.192Z,64.84
2017-03-23T04:50:24.858Z,64.72
2017-03-23T04:51:05.540Z,64.9
2017-03-23T04:51:46.265Z,65
2017-03-23T04:52:26.916Z,64.53
2017-03-23T04:53:07.620Z,64.56
2017-03-23T04:53:48.288Z,64.56
2017-03-23T04:54:28.884Z,64.24
2017-03-23T04:55:09.530Z,64.53
2017-03-23T04:55:50.245Z,64.94
2017-03-23T04:56:30.927Z,63.99
2017-03-23T04:57:11.609Z,63.95
2017-03-23T04:57:52.249Z,64.24
2017-03-23T04:58:32.880Z,64.18
2017-03-23T04:59:13.565Z,63.95
2017-03-23T04:59:54.174Z,64.53
2017-03-23T05:00:34.966Z,64.05
2017-03-23T05:01:15.687Z,64.24
2017-03-23T05:01:56.320Z,64.53
2017-03-23T05:02:36.954Z,65.09
2017-03-23T05:03:17.630Z,65
2017-03-23T05:03:58.266Z,64.53
2017-03-23T05:04:38.907Z,64.08
2017-03-23T05:05:19.652Z,64.34
2017-03-23T05:06:00.364Z,64.34
2017-03-23T05:07:47.996Z,64.56
2017-03-23T05:08:28.663Z,64.34
2017-03-23T05:09:09.360Z,64.18
2017-03-23T05:09:50.041Z,64.34
2017-03-23T05:10:30.768Z,64.46
2017-03-23T05:11:11.665Z,64.37
2017-03-23T05:11:52.282Z,64.46
2017-03-23T05:12:32.990Z,64.46
2017-03-23T05:13:13.687Z,63.86
2017-03-23T05:13:54.357Z,64.34
2017-03-23T05:14:35.272Z,64.34
2017-03-23T05:15:16.035Z,64.37
2017-03-23T05:15:56.739Z,64.34
2017-03-23T05:16:37.452Z,63.86
2017-03-23T05:17:18.298Z,63.99
2017-03-23T05:17:59.023Z,63.99
2017-03-23T05:18:39.783Z,64.08
2017-03-23T05:19:20.433Z,63.79
2017-03-23T05:20:01.158Z,63.89
2017-03-23T05:20:41.872Z,64.24
2017-03-23T05:21:22.532Z,63.89
2017-03-23T05:22:03.222Z,64.08
2017-03-23T05:22:43.819Z,63.67
2017-03-23T05:23:24.578Z,63.7
2017-03-23T05:24:05.159Z,64.08
2017-03-23T05:24:45.816Z,63.95
2017-03-23T05:25:26.509Z,63.76
2017-03-23T05:26:07.275Z,63.86
2017-03-23T05:26:47.867Z,63.7
2017-03-23T05:27:28.644Z,63.51
2017-03-23T05:28:09.314Z,63.57
2017-03-23T05:28:49.933Z,63.51
2017-03-23T05:29:30.604Z,63.6
2017-03-23T05:30:11.301Z,63.6
2017-03-23T05:30:52.140Z,63.23
2017-03-23T05:33:05.383Z,63.13
2017-03-23T05:33:46.136Z,63.32
2017-03-23T05:34:26.745Z,62.85
2017-03-23T05:35:07.431Z,62.85
2017-03-23T05:35:48.377Z,62.85
2017-03-23T05:36:29.034Z,63.04
2017-03-23T05:37:09.795Z,63.51
2017-03-23T05:37:50.491Z,63.42
2017-03-23T05:38:31.276Z,63.51
2017-03-23T05:39:11.980Z,62.85
2017-03-23T05:39:52.636Z,62.94
2017-03-23T05:40:33.410Z,62.85
2017-03-23T05:41:14.120Z,62.94
2017-03-23T05:41:54.785Z,62.94
2017-03-23T05:42:35.605Z,62.94
2017-03-23T05:43:16.250Z,62.72
2017-03-23T05:43:57.068Z,62.81
2017-03-23T05:44:37.708Z,63.04
2017-03-23T05:45:18.482Z,62.81
2017-03-23T05:45:59.245Z,63.51
2017-03-23T05:46:39.964Z,63.23
2017-03-23T05:47:20.657Z,63.23
2017-03-23T05:48:01.357Z,63.32
2017-03-23T05:48:42.043Z,63.13
2017-03-23T05:49:22.832Z,63.32
2017-03-23T05:50:03.609Z,62.85
2017-03-23T05:50:44.272Z,62.75
2017-03-23T05:51:25.137Z,62.75
2017-03-23T05:52:05.861Z,63.13
2017-03-23T05:52:46.545Z,62.94
2017-03-23T05:54:45.065Z,63.04
2017-03-23T05:55:25.778Z,62.94
2017-03-23T05:56:06.438Z,62.75
2017-03-23T05:56:47.094Z,62.94
2017-03-23T05:57:27.906Z,63.13
2017-03-23T05:58:08.651Z,63.13
2017-03-23T05:58:49.316Z,63.01
2017-03-23T05:59:30.019Z,62.94
2017-03-23T06:00:10.787Z,62.91
2017-03-23T06:00:51.433Z,63.2
2017-03-23T06:01:32.040Z,63.32
2017-03-23T06:02:12.731Z,63.32
2017-03-23T06:02:53.403Z,63.29
2017-03-23T06:03:34.237Z,63.23
2017-03-23T06:04:14.901Z,63.23
2017-03-23T06:04:55.693Z,63.04
2017-03-23T06:05:36.467Z,63.6
2017-03-23T06:06:17.202Z,63.2
2017-03-23T06:06:57.861Z,62.75
2017-03-23T06:07:38.575Z,62.75
2017-03-23T06:08:19.333Z,62.94
2017-03-23T06:09:00.015Z,62.91
2017-03-23T06:09:40.730Z,62.65
2017-03-23T06:10:21.502Z,63.13
2017-03-23T06:11:02.149Z,62.94
2017-03-23T06:11:42.860Z,62.94
2017-03-23T06:12:23.556Z,62.94
2017-03-23T06:13:04.224Z,62.43
2017-03-23T06:13:44.974Z,63.13
2017-03-23T06:14:25.601Z,62.94
2017-03-23T06:15:06.311Z,62.65
2017-03-23T06:15:46.977Z,62.94
2017-03-23T06:16:27.645Z,63.04
2017-03-23T06:17:08.367Z,62.94
2017-03-23T06:17:49.022Z,62.94
2017-03-23T06:18:29.751Z,62.85
2017-03-23T06:19:10.428Z,63.23
2017-03-23T06:19:51.197Z,62.94
2017-03-23T06:20:31.886Z,63.23
2017-03-23T06:21:12.614Z,62.75
2017-03-23T06:21:53.324Z,63.23
2017-03-23T06:22:34.006Z,63.23
2017-03-23T06:23:14.738Z,63.13
2017-03-23T06:23:55.455Z,63.2
2017-03-23T06:24:36.170Z,63.23
2017-03-23T06:25:16.954Z,63.51
2017-03-23T06:25:57.762Z,63.6
2017-03-23T06:26:38.451Z,63.42
2017-03-23T06:27:19.176Z,63.32
2017-03-23T06:27:59.868Z,63.79
2017-03-23T06:28:40.580Z,63.51
2017-03-23T06:29:21.361Z,63.79
2017-03-23T06:30:02.089Z,63.6
2017-03-23T06:30:42.702Z,63.89
2017-03-23T06:31:23.389Z,63.99
2017-03-23T06:32:04.263Z,63.7
2017-03-23T06:32:45.011Z,63.89
2017-03-23T06:33:25.743Z,64.46
2017-03-23T06:34:06.367Z,64.43
2017-03-23T06:34:47.068Z,64.46
2017-03-23T06:35:27.729Z,65.03
2017-03-23T06:36:08.412Z,64.84
2017-03-23T06:36:49.155Z,64.24
2017-03-23T06:37:29.833Z,64.46
2017-03-23T06:38:10.733Z,64.56
2017-03-23T06:38:51.452Z,65.03
2017-03-23T06:39:32.074Z,64.75
2017-03-23T06:40:12.805Z,65.22
2017-03-23T06:40:53.619Z,64.72
2017-03-23T06:41:34.477Z,64.94
2017-03-23T06:42:15.212Z,65.13
2017-03-23T06:42:55.941Z,67.41
2017-03-23T06:43:36.582Z,67.98
2017-03-23T06:44:17.194Z,68.84
2017-03-23T06:44:57.925Z,68.36
2017-03-23T06:45:38.591Z,67.22
2017-03-23T06:46:19.300Z,66.55
2017-03-23T06:46:59.991Z,65.7
2017-03-23T06:47:40.820Z,65.22
2017-03-23T06:48:21.545Z,67.6
2017-03-23T06:49:02.248Z,67.54
2017-03-23T06:49:43.036Z,68.68
2017-03-23T06:50:23.772Z,67.73
2017-03-23T06:51:04.470Z,67.44
2017-03-23T06:51:45.125Z,66.24
2017-03-23T06:52:25.903Z,65.1
2017-03-23T06:53:06.667Z,65.67
2017-03-23T06:53:47.359Z,66.24
2017-03-23T06:54:28.016Z,65.95
2017-03-23T06:55:08.712Z,64.28
2017-03-23T06:55:49.377Z,63.04
2017-03-23T06:56:30.153Z,62.85
2017-03-23T06:57:10.947Z,63.04
2017-03-23T06:57:51.716Z,63.04
2017-03-23T06:58:32.527Z,63.6
2017-03-23T06:59:13.319Z,63.99
2017-03-23T06:59:54.018Z,62.85
2017-03-23T07:00:34.823Z,60.85
2017-03-23T07:01:15.514Z,61.73
2017-03-23T07:01:56.066Z,62.08
2017-03-23T07:02:36.750Z,62.02
2017-03-23T07:03:17.411Z,61.54
2017-03-23T07:03:58.011Z,61.45
2017-03-23T07:04:39.035Z,61.35
2017-03-23T07:05:19.719Z,62.12
2017-03-23T07:06:00.393Z,62.21
2017-03-23T07:06:41.119Z,61.83
2017-03-23T07:07:21.898Z,61.35
2017-03-23T07:08:02.780Z,60.88
2017-03-23T07:08:43.497Z,60.21
2017-03-23T07:09:24.330Z,59.76
2017-03-23T07:10:05.002Z,59.38
2017-03-23T07:10:45.835Z,59.19
2017-03-23T07:11:26.480Z,58.52
2017-03-23T07:12:07.584Z,58.04
2017-03-23T07:12:48.325Z,57.95
2017-03-23T07:13:28.982Z,57.48
2017-03-23T07:14:09.625Z,57.95
2017-03-23T07:14:50.529Z,57.95
2017-03-23T07:15:31.209Z,57.95
2017-03-23T07:16:11.886Z,57.48
2017-03-23T07:16:52.513Z,57.19
2017-03-23T07:17:33.207Z,57
2017-03-23T07:18:13.971Z,57.19
2017-03-23T07:18:54.686Z,57.09
2017-03-23T07:19:35.372Z,57.09
2017-03-23T07:20:16.049Z,57.38
2017-03-23T07:20:56.710Z,56.9
2017-03-23T07:21:37.406Z,56.52
2017-03-23T07:22:18.041Z,57.03
2017-03-23T07:22:58.723Z,56.55
2017-03-23T07:23:39.452Z,56.07
2017-03-23T07:24:20.126Z,55.79
2017-03-23T07:25:00.758Z,55.88
2017-03-23T07:25:41.493Z,55.6
2017-03-23T07:26:22.265Z,55.69
2017-03-23T07:27:03.027Z,54.74
2017-03-23T07:27:43.716Z,54.93
2017-03-23T07:28:24.352Z,54.17
2017-03-23T07:29:05.118Z,53.76
2017-03-23T07:29:45.892Z,53.95
2017-03-23T07:30:26.589Z,54.43
2017-03-23T07:31:07.252Z,54.8
2017-03-23T07:31:47.945Z,55.63
2017-03-23T07:32:28.645Z,57.07
2017-03-23T07:33:09.320Z,57.26
2017-03-23T07:33:49.956Z,58.37
2017-03-23T07:34:30.636Z,58.65
2017-03-23T07:35:11.354Z,59.03
2017-03-23T07:35:52.030Z,59.32
2017-03-23T07:36:32.686Z,60.15
2017-03-23T07:37:13.655Z,60.44
2017-03-23T07:37:54.264Z,60.63
2017-03-23T07:38:35.015Z,61.58
2017-03-23T07:39:15.801Z,62.53
2017-03-23T07:39:56.424Z,62.43
2017-03-23T07:40:37.121Z,62.88
2017-03-23T07:41:17.776Z,62.97
2017-03-23T07:41:58.607Z,62.88
2017-03-23T07:42:39.390Z,63.54
2017-03-23T07:43:20.874Z,63.73
2017-03-23T07:44:01.621Z,63.92
2017-03-23T07:44:42.851Z,64.11
2017-03-23T07:45:24.025Z,64.31
2017-03-23T07:46:04.604Z,64.31
2017-03-23T07:46:45.732Z,64.87
2017-03-23T07:47:26.489Z,65.45
2017-03-23T07:48:07.245Z,65.64
2017-03-23T07:48:47.973Z,65.83
2017-03-23T07:49:28.699Z,65.92
2017-03-23T07:50:09.309Z,65.83
2017-03-23T07:50:50.005Z,65.92
2017-03-23T07:51:30.702Z,65.92
2017-03-23T07:52:11.429Z,65.41
2017-03-23T07:52:52.043Z,65.8
2017-03-23T07:53:32.801Z,65.64
2017-03-23T07:54:13.584Z,65.7
2017-03-23T07:54:54.276Z,66.02
2017-03-23T07:55:34.948Z,66.27
2017-03-23T07:56:15.719Z,66.36
2017-03-23T07:56:56.370Z,66.74
2017-03-23T07:57:37.086Z,66.74
2017-03-23T07:58:17.797Z,66.17
2017-03-23T07:58:58.588Z,66.36
2017-03-23T07:59:39.284Z,66.17
2017-03-23T08:00:19.896Z,65.89
2017-03-23T08:01:00.586Z,65.89
2017-03-23T08:01:41.240Z,65.89
2017-03-23T08:02:21.938Z,65.6
2017-03-23T08:03:02.607Z,65.99
2017-03-23T08:03:43.612Z,65.89
2017-03-23T08:04:24.321Z,66.08
2017-03-23T08:05:05.083Z,65.8
2017-03-23T08:05:45.800Z,66.17
2017-03-23T08:06:26.536Z,66.08
2017-03-23T08:07:07.215Z,66.17
2017-03-23T08:07:47.992Z,66.17
2017-03-23T08:08:28.642Z,66.17
2017-03-23T08:09:09.351Z,66.27
2017-03-23T08:09:50.057Z,65.99
2017-03-23T08:10:30.721Z,66.27
2017-03-23T08:11:11.387Z,66.36
2017-03-23T08:11:52.021Z,66.27
2017-03-23T08:12:32.696Z,66.74
2017-03-23T08:13:13.339Z,66.27
2017-03-23T08:13:54.152Z,67.03
2017-03-23T08:14:34.819Z,67.22
2017-03-23T08:15:15.551Z,67.13
2017-03-23T08:15:56.238Z,67.32
2017-03-23T08:16:37.040Z,67.32
2017-03-23T08:17:17.730Z,66.46
2017-03-23T08:17:58.368Z,66.74
2017-03-23T08:18:39.040Z,66.84
2017-03-23T08:19:19.666Z,67.22
2017-03-23T08:20:00.399Z,67.41
2017-03-23T08:20:41.038Z,67.41
2017-03-23T08:21:21.826Z,67.6
2017-03-23T08:22:02.486Z,67.13
2017-03-23T08:22:43.251Z,67.32
2017-03-23T08:23:23.893Z,67.41
2017-03-23T08:24:04.722Z,67.32
2017-03-23T08:24:45.382Z,67.13
2017-03-23T08:25:26.155Z,67.41
2017-03-23T08:26:06.833Z,67.5
2017-03-23T08:26:47.660Z,67.88
2017-03-23T08:27:28.389Z,67.5
2017-03-23T08:28:09.003Z,67.69
2017-03-23T08:28:49.713Z,67.88
2017-03-23T08:29:30.372Z,67.6
2017-03-23T08:30:11.136Z,67.6
2017-03-23T08:30:51.892Z,67.6
2017-03-23T08:31:32.612Z,67.6
2017-03-23T08:32:13.379Z,67.69
2017-03-23T08:32:54.081Z,67.6
2017-03-23T08:33:34.908Z,67.5
2017-03-23T08:34:15.546Z,67.69
2017-03-23T08:34:56.119Z,67.69
2017-03-23T08:35:36.813Z,67.41
2017-03-23T08:36:17.457Z,67.98
2017-03-23T08:36:58.109Z,68.17
2017-03-23T08:37:38.786Z,67.88
2017-03-23T08:38:19.497Z,68.17
2017-03-23T08:39:00.205Z,68.55
2017-03-23T08:39:40.824Z,68.55
2017-03-23T08:40:21.556Z,68.55
2017-03-23T08:41:02.165Z,68.36
2017-03-23T08:41:42.837Z,68.27
2017-03-23T08:42:23.497Z,67.88
2017-03-23T08:43:04.112Z,68.65
2017-03-23T08:43:44.770Z,68.55
2017-03-23T08:44:25.484Z,68.84
2017-03-23T08:45:06.089Z,69.12
2017-03-23T08:45:46.773Z,69.21
2017-03-23T08:46:27.445Z,70.17
2017-03-23T08:47:08.115Z,70.07
2017-03-23T08:47:48.695Z,69.98
2017-03-23T08:48:29.402Z,70.64
2017-03-23T08:49:10.060Z,70.64
2017-03-23T08:49:50.705Z,70.07
2017-03-23T08:50:31.353Z,70.54
2017-03-23T08:51:11.971Z,70.17
2017-03-23T08:51:52.605Z,70.07